Hauptseite
METAR-TAF:

METAR-TAF

Flughäfen :

Saarbrücken, Deutschland

Flughafen Saarbrücken

Breite: 49-13N, Länge: 007-07E, Höhe: 322 m

Beobachtung

Neuester Wetterbericht von vor 27 Minuten, um 13:20 UTC
Wind 18 kt aus Ost/Nordost, Böen bis zu 28 kt
Temperatur 4°C
Luftfeuchtigkeit 30%
Luftdruck 1016 hPa
Sichtweite 10 km oder mehr
keine Wolken unter 1500 m und keine Kumulonimbus oder Gewitterwolken

METAR: EDDR 241320Z 07018G28KT CAVOK 04/M12 Q1016 NOSIG

Zeit: 14:47 (13:47 UTC)

Prognose

Neuester Wetterbericht von vor 2 Stunden und 47 Minuten, um 11:00 UTC
Gültige Prognose vom 24 um 12 UTC bis 25 um 12 UTC
Wind 15 kt aus Ost/Nordost, Böen bis zu 25 kt
Sichtweite 10 km oder mehr
keine Wolken unter 1500 m und keine Kumulonimbus oder Gewitterwolken

TAF: EDDR 241100Z 2412/2512 06015G25KT CAVOK

Wetterbeobachtungen und Prognosen von mehr als 4000 Flughäfen (METAR und TAF Bericht).

Die verfügbaren Stationen werden durch gelbe und rote Markierungen auf der Karte dargestellt.

Führen Sie die Maus auf sie, um den Namen der Station zu sehen.

Darauf klicken, um die Beobachtung von Wetterbeobachtungen und Prognosen zu sehen.

Um die Karte zu ändern : klicken Sie auf den grünen Tasten mit einem schwarzen Kreuz Zum Vergrößern, auf den grünen Button mit einem Gedankenstrich zu verkleinern, oder auf die grünen Pfeile für benachbarte Karten.


METAR-TAF: